Time;durP1;ratioP1;P1;durP2;ratioP2;P2;SDS_P1;SDS_P2;PMS_P1;PMS_P2;Temp;Humidity;BMP_temperature;BMP_pressure;BME280_temperature;BME280_humidity;BME280_pressure;Samples;Min_cycle;Max_cycle;Signal;HPM_P1;HPM_P2
2022/12/07 00:01:24;;;;;;;11.60;6.47;;;4.20;99.90;;;;;;5048961;28;20025;-75
2022/12/07 00:03:53;;;;;;;13.60;6.85;;;2.80;99.90;;;;;;5050475;28;20029;-73
2022/12/07 00:06:19;;;;;;;14.05;6.55;;;2.70;99.90;;;;;;5050407;28;20554;-74
2022/12/07 00:08:47;;;;;;;14.68;7.05;;;4.30;99.90;;;;;;5050643;28;20058;-74
2022/12/07 00:11:18;;;;;;;18.98;7.60;;;3.30;99.90;;;;;;5049060;28;20082;-74
2022/12/07 00:13:45;;;;;;;16.63;7.18;;;2.70;99.90;;;;;;5050126;28;20112;-74
2022/12/07 00:16:12;;;;;;;12.20;6.15;;;3.00;99.90;;;;;;5050254;28;20059;-74
2022/12/07 00:18:38;;;;;;;17.33;8.20;;;2.60;99.90;;;;;;5050166;28;20039;-73
2022/12/07 00:21:13;;;;;;;13.05;6.90;;;3.10;99.90;;;;;;5050287;28;20025;-75
2022/12/07 00:23:40;;;;;;;14.40;6.72;;;2.60;99.90;;;;;;5048588;28;20051;-74
2022/12/07 00:26:12;;;;;;;15.50;6.97;;;3.00;99.90;;;;;;5048593;28;20028;-75
2022/12/07 00:28:38;;;;;;;14.60;7.47;;;2.60;99.90;;;;;;5048371;28;20027;-74
2022/12/07 00:31:06;;;;;;;21.88;7.50;;;2.90;99.90;;;;;;5048472;28;20025;-74
2022/12/07 00:33:34;;;;;;;14.43;7.05;;;2.60;99.90;;;;;;5049602;28;20388;-74
2022/12/07 00:36:00;;;;;;;15.02;7.30;;;2.60;99.90;;;;;;5049713;28;20023;-74
2022/12/07 00:38:29;;;;;;;15.65;6.47;;;2.60;99.90;;;;;;5048559;28;20081;-74
2022/12/07 00:40:57;;;;;;;20.15;10.35;;;2.80;99.90;;;;;;5055772;28;20025;-74
2022/12/07 00:43:22;;;;;;;15.23;7.72;;;2.80;99.90;;;;;;5085021;28;20032;-74
2022/12/07 00:45:48;;;;;;;15.00;7.28;;;3.20;99.90;;;;;;5063277;28;20993;-75
2022/12/07 00:48:13;;;;;;;11.85;6.18;;;2.80;99.90;;;;;;5064539;28;20033;-75
2022/12/07 00:50:39;;;;;;;14.73;7.78;;;2.80;99.90;;;;;;5069215;28;20020;-76
2022/12/07 00:53:05;;;;;;;15.60;7.32;;;2.70;99.90;;;;;;5055122;28;20037;-75
2022/12/07 00:55:34;;;;;;;18.50;8.27;;;3.20;99.90;;;;;;5046937;28;20496;-76
2022/12/07 00:58:00;;;;;;;14.43;7.45;;;3.10;99.90;;;;;;5047804;28;20029;-76
2022/12/07 01:00:26;;;;;;;16.70;7.55;;;2.70;99.90;;;;;;5045896;28;20081;-75
2022/12/07 01:02:52;;;;;;;16.08;8.18;;;3.60;99.90;;;;;;5052107;28;20056;-76
2022/12/07 01:05:18;;;;;;;17.30;8.48;;;2.60;99.90;;;;;;5065808;28;20025;-76
2022/12/07 01:07:44;;;;;;;15.40;7.82;;;2.90;99.90;;;;;;5071121;28;20048;-76
2022/12/07 01:10:10;;;;;;;17.70;6.93;;;2.70;99.90;;;;;;5071236;28;20032;-76
2022/12/07 01:12:35;;;;;;;12.32;5.78;;;2.60;99.90;;;;;;5071329;28;20040;-77
2022/12/07 01:15:01;;;;;;;20.52;8.52;;;2.60;99.90;;;;;;5069894;28;20471;-77
2022/12/07 01:17:28;;;;;;;14.85;8.50;;;2.70;99.90;;;;;;5070097;28;20426;-75
2022/12/07 01:19:53;;;;;;;13.70;7.03;;;2.60;99.90;;;;;;5069899;28;20397;-76
2022/12/07 01:22:19;;;;;;;12.25;6.75;;;3.70;99.90;;;;;;5071073;28;20508;-77
2022/12/07 01:24:46;;;;;;;16.95;8.30;;;2.70;99.90;;;;;;5070810;28;20024;-76
2022/12/07 01:27:12;;;;;;;13.80;5.75;;;2.70;99.90;;;;;;5069935;28;20548;-75
2022/12/07 01:29:38;;;;;;;15.00;7.47;;;4.10;99.90;;;;;;5070353;28;20032;-76
2022/12/07 01:32:04;;;;;;;15.00;7.72;;;2.70;99.90;;;;;;5071178;28;20409;-76
2022/12/07 01:34:30;;;;;;;15.60;7.22;;;2.70;99.90;;;;;;5070442;28;20040;-77
2022/12/07 01:36:55;;;;;;;18.63;9.15;;;4.00;99.90;;;;;;5069921;28;20016;-76
2022/12/07 01:39:21;;;;;;;13.02;6.63;;;2.00;99.90;;;;;;5072070;28;20028;-76
2022/12/07 01:41:47;;;;;;;24.40;9.65;;;2.70;99.90;;;;;;5068660;28;20040;-76
2022/12/07 01:44:29;;;;;;;20.58;8.85;;;3.20;99.90;;;;;;5071165;28;20027;-75
2022/12/07 01:47:03;;;;;;;17.77;9.82;;;2.70;99.90;;;;;;5069049;28;20016;-76
2022/12/07 01:49:48;;;;;;;19.17;10.75;;;2.70;99.90;;;;;;5070288;28;20029;-76
2022/12/07 01:52:25;;;;;;;13.82;8.18;;;2.90;99.90;;;;;;5069297;28;20032;-80
2022/12/07 01:54:56;;;;;;;15.98;7.57;;;2.60;99.90;;;;;;5069576;28;20036;-76
2022/12/07 01:57:22;;;;;;;14.35;7.20;;;2.60;99.90;;;;;;5069256;28;20053;-74
2022/12/07 01:59:50;;;;;;;14.82;7.43;;;3.60;99.90;;;;;;5068633;28;20043;-77
2022/12/07 02:02:34;;;;;;;15.82;7.63;;;4.00;99.90;;;;;;5068813;28;20060;-75
2022/12/07 02:05:02;;;;;;;16.75;7.15;;;2.50;99.90;;;;;;5067614;28;20051;-75
2022/12/07 02:07:29;;;;;;;13.55;6.55;;;3.90;99.90;;;;;;5069794;28;20060;-76
2022/12/07 02:09:55;;;;;;;19.20;9.20;;;3.20;99.90;;;;;;5068573;28;20028;-76
2022/12/07 02:12:23;;;;;;;12.35;6.82;;;2.50;99.90;;;;;;5067912;28;20024;-75
2022/12/07 02:14:50;;;;;;;19.30;8.98;;;2.50;99.90;;;;;;5068506;28;20492;-76
2022/12/07 02:17:56;;;;;;;13.57;8.38;;;2.60;99.90;;;;;;5067419;28;20067;-75
2022/12/07 02:20:30;;;;;;;14.43;7.80;;;2.50;99.90;;;;;;5066906;28;20123;-75
2022/12/07 02:23:17;;;;;;;16.92;6.63;;;2.50;99.90;;;;;;5067216;28;20079;-76
2022/12/07 02:26:04;;;;;;;16.70;8.38;;;2.40;99.90;;;;;;5067280;28;20027;-77
2022/12/07 02:28:53;;;;;;;13.27;6.15;;;2.50;99.90;;;;;;5068854;28;20599;-76
2022/12/07 02:31:21;;;;;;;11.10;5.90;;;2.50;99.90;;;;;;5066902;28;20427;-76
2022/12/07 02:33:59;;;;;;;14.50;7.55;;;3.70;99.90;;;;;;5066765;28;20363;-76
2022/12/07 02:36:30;;;;;;;13.35;7.22;;;2.50;99.90;;;;;;5069660;28;20024;-76
2022/12/07 02:39:07;;;;;;;13.20;5.65;;;2.50;99.90;;;;;;5069879;28;20059;-76
2022/12/07 02:42:00;;;;;;;11.27;7.38;;;2.50;99.90;;;;;;5058507;28;20025;-76
2022/12/07 02:44:28;;;;;;;15.98;6.55;;;2.50;99.90;;;;;;5049706;28;20029;-76
2022/12/07 02:47:01;;;;;;;18.08;8.25;;;2.50;99.90;;;;;;5049287;28;20013;-76
2022/12/07 02:49:28;;;;;;;17.15;10.75;;;2.50;99.90;;;;;;5052387;28;20036;-74
2022/12/07 02:51:54;;;;;;;16.15;7.82;;;3.20;99.90;;;;;;5050412;28;20017;-74
2022/12/07 02:54:21;;;;;;;18.85;8.52;;;3.80;99.90;;;;;;5050618;28;20044;-74
2022/12/07 02:57:18;;;;;;;19.25;8.55;;;2.50;99.90;;;;;;5050909;28;20025;-73
2022/12/07 03:00:08;;;;;;;18.65;9.02;;;2.50;99.90;;;;;;5050741;28;20028;-74
2022/12/07 03:02:58;;;;;;;20.70;9.00;;;2.50;99.90;;;;;;5045738;28;20528;-74
2022/12/07 03:05:24;;;;;;;19.40;9.32;;;2.50;99.90;;;;;;5049955;28;20033;-74
2022/12/07 03:08:20;;;;;;;20.15;7.78;;;2.70;99.90;;;;;;5051398;28;20021;-74
2022/12/07 03:11:08;;;;;;;20.80;9.43;;;2.70;99.90;;;;;;5049675;28;20124;-74
2022/12/07 03:13:49;;;;;;;23.20;9.98;;;2.60;99.90;;;;;;5050792;28;20143;-73
2022/12/07 03:16:27;;;;;;;17.05;9.23;;;2.60;99.90;;;;;;5050573;28;20029;-73
2022/12/07 03:19:11;;;;;;;25.02;10.43;;;2.60;99.90;;;;;;5049640;28;20061;-73
2022/12/07 03:22:05;;;;;;;17.98;10.05;;;2.60;99.90;;;;;;5050787;28;20049;-73
2022/12/07 03:24:41;;;;;;;18.88;10.98;;;2.60;99.90;;;;;;5047472;28;20036;-74
2022/12/07 03:27:08;;;;;;;14.70;7.82;;;2.60;99.90;;;;;;5050713;28;20028;-74
2022/12/07 03:29:38;;;;;;;22.05;8.48;;;2.60;99.90;;;;;;5049594;28;20033;-73
2022/12/07 03:32:15;;;;;;;27.02;10.15;;;2.60;99.90;;;;;;5050878;28;20025;-73
2022/12/07 03:34:48;;;;;;;25.23;10.68;;;2.80;99.90;;;;;;5050937;28;20037;-74
2022/12/07 03:37:32;;;;;;;21.92;10.13;;;2.60;99.90;;;;;;5049219;28;20021;-73
2022/12/07 03:40:22;;;;;;;24.10;11.02;;;2.60;99.90;;;;;;5050843;28;20064;-73
2022/12/07 03:42:49;;;;;;;19.15;9.05;;;2.60;99.90;;;;;;5050214;28;20090;-74
2022/12/07 03:45:16;;;;;;;26.98;12.80;;;2.60;99.90;;;;;;5050286;28;20055;-74
2022/12/07 03:48:01;;;;;;;19.23;11.27;;;2.70;99.90;;;;;;5050629;28;20025;-74
2022/12/07 03:50:50;;;;;;;18.42;9.45;;;2.70;99.90;;;;;;5050777;28;20032;-73
2022/12/07 03:53:26;;;;;;;21.63;10.87;;;2.70;99.90;;;;;;5049799;28;20037;-74
2022/12/07 03:55:54;;;;;;;23.98;11.40;;;2.70;99.90;;;;;;5050522;28;20775;-74
2022/12/07 03:58:22;;;;;;;20.90;10.07;;;2.60;99.90;;;;;;5050245;28;20025;-74
2022/12/07 04:00:49;;;;;;;24.85;9.88;;;2.50;99.90;;;;;;5049287;28;20463;-75
2022/12/07 04:03:15;;;;;;;29.17;9.10;;;2.80;99.90;;;;;;5050229;28;20602;-74
2022/12/07 04:05:42;;;;;;;16.13;8.27;;;2.50;99.90;;;;;;5048766;28;20025;-74
2022/12/07 04:08:07;;;;;;;23.73;9.27;;;2.40;99.90;;;;;;5048900;28;20033;-73
2022/12/07 04:10:33;;;;;;;15.80;8.10;;;3.60;99.90;;;;;;5049535;28;20025;-74
2022/12/07 04:12:59;;;;;;;18.15;7.55;;;4.30;99.90;;;;;;5048553;28;20060;-75
2022/12/07 04:15:24;;;;;;;19.15;10.68;;;3.00;99.90;;;;;;5050156;28;20020;-74
2022/12/07 04:17:50;;;;;;;14.98;7.65;;;2.50;99.90;;;;;;5050230;28;20033;-74
2022/12/07 04:20:16;;;;;;;16.38;8.38;;;2.60;99.90;;;;;;5048858;28;20485;-77
2022/12/07 04:22:42;;;;;;;23.65;9.02;;;2.50;99.90;;;;;;5048167;28;20041;-75
2022/12/07 04:25:07;;;;;;;22.65;9.43;;;2.40;99.90;;;;;;5046836;28;20139;-75
2022/12/07 04:27:34;;;;;;;16.33;8.10;;;2.40;99.90;;;;;;5046844;28;20553;-74
2022/12/07 04:29:59;;;;;;;19.92;10.88;;;2.50;99.90;;;;;;5048355;28;20048;-74
2022/12/07 04:32:25;;;;;;;15.30;8.02;;;3.60;99.90;;;;;;5048250;28;20021;-74
2022/12/07 04:34:50;;;;;;;15.68;7.60;;;2.80;99.90;;;;;;5048602;28;20037;-73
2022/12/07 04:37:17;;;;;;;18.40;9.77;;;2.40;99.90;;;;;;5049006;28;20028;-75
2022/12/07 04:39:45;;;;;;;13.82;7.63;;;2.30;99.90;;;;;;5048635;28;20432;-75
2022/12/07 04:42:12;;;;;;;18.48;7.85;;;2.10;99.90;;;;;;5049437;28;20103;-75
2022/12/07 04:44:38;;;;;;;15.75;7.63;;;3.50;99.90;;;;;;5049896;28;20052;-75
2022/12/07 04:47:04;;;;;;;20.80;9.07;;;2.60;99.90;;;;;;5049907;28;20732;-76
2022/12/07 04:49:29;;;;;;;13.45;6.05;;;2.50;99.90;;;;;;5049885;28;20029;-74
2022/12/07 04:51:55;;;;;;;13.35;6.75;;;2.30;99.90;;;;;;5049842;28;20017;-76
2022/12/07 04:54:21;;;;;;;15.18;6.25;;;2.30;99.90;;;;;;5049741;28;20115;-76
2022/12/07 04:56:46;;;;;;;14.15;5.60;;;3.10;99.90;;;;;;5049685;28;20021;-74
2022/12/07 04:59:13;;;;;;;14.55;7.18;;;2.40;99.90;;;;;;5049878;28;20071;-74
2022/12/07 05:01:39;;;;;;;12.45;5.50;;;3.60;99.90;;;;;;5049778;28;20021;-76
2022/12/07 05:04:05;;;;;;;12.93;6.25;;;2.90;99.90;;;;;;5049637;28;20035;-75
2022/12/07 05:06:30;;;;;;;18.90;8.20;;;2.30;99.90;;;;;;5048707;28;20114;-76
2022/12/07 05:08:56;;;;;;;19.92;7.05;;;3.10;99.90;;;;;;5050001;28;20029;-75
2022/12/07 05:11:40;;;;;;;11.35;6.65;;;3.00;99.90;;;;;;5049785;28;20021;-74
2022/12/07 05:14:19;;;;;;;9.27;5.88;;;2.30;99.90;;;;;;5049499;28;20037;-74
2022/12/07 05:16:47;;;;;;;11.60;5.38;;;2.30;99.90;;;;;;5049640;28;20017;-74
2022/12/07 05:19:13;;;;;;;10.30;5.15;;;2.30;99.90;;;;;;5049432;28;20029;-74
2022/12/07 05:21:39;;;;;;;14.75;7.00;;;2.40;99.90;;;;;;5049786;28;20619;-73
2022/12/07 05:24:07;;;;;;;9.48;5.47;;;2.70;99.90;;;;;;5049872;28;20094;-74
2022/12/07 05:26:33;;;;;;;16.98;8.07;;;2.30;99.90;;;;;;5049452;28;20477;-74
2022/12/07 05:28:58;;;;;;;10.90;5.53;;;2.40;99.90;;;;;;5049802;28;20025;-75
2022/12/07 05:31:27;;;;;;;11.65;5.63;;;2.20;99.90;;;;;;5048332;28;20028;-76
2022/12/07 05:33:52;;;;;;;10.38;5.75;;;2.20;99.90;;;;;;5049503;28;20087;-74
2022/12/07 05:36:18;;;;;;;11.57;5.45;;;3.70;99.90;;;;;;5049782;28;20048;-76
2022/12/07 05:38:44;;;;;;;12.65;5.45;;;2.90;99.90;;;;;;5047823;28;20124;-74
2022/12/07 05:42:11;;;;;;;10.02;4.40;;;3.10;99.90;;;;;;5049383;28;20494;-74
2022/12/07 05:43:59;;;;;;;12.77;5.57;;;2.30;99.90;;;;;;5049169;28;20028;-74
2022/12/07 05:46:25;;;;;;;7.00;4.30;;;2.90;99.90;;;;;;5047832;28;20025;-76
2022/12/07 05:48:51;;;;;;;10.93;6.70;;;2.30;99.90;;;;;;5051012;28;20647;-76
2022/12/07 05:51:17;;;;;;;8.75;4.90;;;2.40;99.90;;;;;;5051487;28;20464;-74
2022/12/07 05:53:42;;;;;;;14.00;6.13;;;3.40;99.90;;;;;;5052748;28;20428;-76
2022/12/07 05:56:08;;;;;;;14.13;5.78;;;2.20;99.90;;;;;;5052679;28;20079;-73
2022/12/07 06:01:17;;;;;;;10.38;5.60;;;2.30;99.90;;;;;;5052516;28;20492;-74
2022/12/07 06:03:44;;;;;;;11.52;5.30;;;2.20;99.90;;;;;;5052537;28;20033;-75
2022/12/07 06:06:10;;;;;;;10.05;4.82;;;2.20;99.90;;;;;;5052301;28;20454;-74
2022/12/07 06:08:35;;;;;;;8.90;4.60;;;2.20;99.90;;;;;;5050998;28;20082;-73
2022/12/07 06:13:45;;;;;;;10.77;6.13;;;2.40;99.90;;;;;;5052015;28;20108;-74
2022/12/07 06:16:11;;;;;;;7.68;4.63;;;2.10;99.90;;;;;;5052432;28;20021;-74
2022/12/07 06:18:36;;;;;;;9.65;5.55;;;2.20;99.90;;;;;;5051036;28;20029;-73
2022/12/07 06:21:02;;;;;;;7.47;5.00;;;3.20;99.90;;;;;;5050609;28;20523;-73
2022/12/07 06:23:27;;;;;;;9.68;6.13;;;2.10;99.90;;;;;;5052227;28;20037;-74
2022/12/07 06:25:53;;;;;;;10.60;5.28;;;2.10;99.90;;;;;;5050672;28;20049;-74
2022/12/07 06:28:19;;;;;;;12.10;5.88;;;2.30;99.90;;;;;;5051769;28;20561;-74
2022/12/07 06:30:44;;;;;;;10.57;4.65;;;3.00;99.90;;;;;;5050739;28;20022;-74
2022/12/07 06:33:10;;;;;;;10.00;4.45;;;2.00;99.90;;;;;;5051819;28;20033;-74
2022/12/07 06:35:35;;;;;;;8.13;4.38;;;2.00;99.90;;;;;;5051757;28;20507;-74
2022/12/07 06:38:01;;;;;;;13.15;4.78;;;3.10;99.90;;;;;;5051914;28;20037;-74
2022/12/07 06:40:27;;;;;;;9.77;5.45;;;1.90;99.90;;;;;;5050366;28;20067;-73
2022/12/07 06:42:52;;;;;;;7.72;4.97;;;1.80;99.90;;;;;;5050228;28;20082;-74
2022/12/07 06:45:18;;;;;;;8.57;4.50;;;2.30;99.90;;;;;;5051772;28;20029;-74
2022/12/07 06:47:43;;;;;;;8.57;4.28;;;2.50;99.90;;;;;;5051648;28;20511;-74
2022/12/07 06:50:09;;;;;;;11.27;5.22;;;1.60;99.90;;;;;;5053875;28;20056;-74
2022/12/07 06:52:35;;;;;;;12.93;4.32;;;1.60;99.90;;;;;;5060640;28;20047;-76
2022/12/07 06:55:00;;;;;;;12.40;4.15;;;2.80;99.90;;;;;;5062902;28;20362;-75
2022/12/07 06:57:26;;;;;;;8.73;4.30;;;1.80;99.90;;;;;;5060676;28;20017;-74
2022/12/07 06:59:52;;;;;;;8.15;4.72;;;1.50;99.90;;;;;;5060693;28;20092;-75
2022/12/07 07:02:18;;;;;;;17.98;5.63;;;1.60;99.90;;;;;;5060213;28;20103;-74
2022/12/07 07:04:43;;;;;;;13.82;5.22;;;2.00;99.90;;;;;;5061824;28;20025;-75
2022/12/07 07:07:09;;;;;;;6.75;4.03;;;1.30;99.90;;;;;;5061650;28;20335;-73
2022/12/07 07:09:35;;;;;;;9.35;5.57;;;1.30;99.90;;;;;;5060194;28;20347;-76
2022/12/07 07:12:00;;;;;;;9.25;3.60;;;1.90;99.90;;;;;;5059819;28;20025;-75
2022/12/07 07:14:26;;;;;;;13.40;5.03;;;2.70;99.90;;;;;;5060181;28;20078;-77
2022/12/07 07:16:52;;;;;;;8.73;4.22;;;1.20;99.90;;;;;;5059969;28;20021;-75
2022/12/07 07:19:17;;;;;;;12.60;4.47;;;2.80;99.90;;;;;;5061493;28;20336;-75
2022/12/07 07:21:43;;;;;;;11.05;5.53;;;1.10;99.90;;;;;;5060203;28;20090;-76
2022/12/07 07:24:09;;;;;;;8.80;4.05;;;1.10;99.90;;;;;;5061147;28;20087;-75
2022/12/07 07:26:34;;;;;;;7.35;4.43;;;1.10;99.90;;;;;;5059963;28;20032;-75
2022/12/07 07:29:00;;;;;;;9.18;4.93;;;1.10;99.90;;;;;;5061329;28;20028;-75
2022/12/07 07:31:25;;;;;;;9.75;5.30;;;2.00;99.90;;;;;;5060570;28;20273;-75
2022/12/07 07:33:51;;;;;;;9.48;5.20;;;2.70;99.90;;;;;;5060618;28;20084;-75
2022/12/07 07:36:17;;;;;;;10.48;5.50;;;1.30;99.90;;;;;;5060731;28;20091;-76
2022/12/07 07:38:42;;;;;;;7.93;4.85;;;2.90;99.90;;;;;;5060559;28;20021;-75
2022/12/07 07:41:08;;;;;;;8.35;5.03;;;2.70;99.90;;;;;;5061115;28;20243;-76
2022/12/07 07:43:34;;;;;;;9.57;4.97;;;2.80;99.90;;;;;;5060735;28;20047;-75
2022/12/07 07:45:59;;;;;;;8.98;5.05;;;1.80;99.90;;;;;;5061070;28;20033;-75
2022/12/07 07:48:25;;;;;;;6.70;4.80;;;3.20;99.90;;;;;;5060756;28;20043;-76
2022/12/07 07:50:51;;;;;;;8.75;6.18;;;2.30;99.90;;;;;;5060876;28;20028;-76
2022/12/07 07:53:16;;;;;;;13.25;5.10;;;1.70;99.90;;;;;;5060275;28;20059;-76
2022/12/07 07:55:51;;;;;;;6.40;4.63;;;2.20;99.90;;;;;;5060767;28;20325;-77
2022/12/07 07:58:17;;;;;;;8.65;5.00;;;1.80;99.90;;;;;;5059406;28;20032;-75
2022/12/07 08:00:42;;;;;;;8.00;4.35;;;2.90;99.90;;;;;;5065250;28;20092;-75
2022/12/07 08:03:08;;;;;;;8.10;4.65;;;2.00;99.90;;;;;;5069453;28;20213;-75
2022/12/07 08:05:33;;;;;;;8.50;4.93;;;2.70;99.90;;;;;;5070732;28;20013;-76
2022/12/07 08:07:59;;;;;;;7.47;3.88;;;2.70;99.90;;;;;;5065283;28;20017;-76
2022/12/07 08:10:25;;;;;;;7.22;4.82;;;2.40;99.90;;;;;;5065321;28;20036;-76
2022/12/07 08:15:37;;;;;;;16.25;5.30;;;2.70;99.90;;;;;;5060195;28;20163;-76
2022/12/07 08:18:03;;;;;;;11.00;5.18;;;2.80;99.90;;;;;;5060110;28;20024;-76
2022/12/07 08:20:33;;;;;;;7.30;4.25;;;2.70;99.90;;;;;;5059028;28;20029;-74
2022/12/07 08:22:58;;;;;;;;;;;3.30;99.90;;;;;;5058724;28;20049;-76
2022/12/07 08:25:24;;;;;;;8.07;3.47;;;3.00;99.90;;;;;;5058771;28;20188;-76
2022/12/07 08:27:51;;;;;;;9.30;3.75;;;3.00;99.90;;;;;;5057656;28;20024;-76
2022/12/07 08:30:18;;;;;;;11.25;5.13;;;3.30;99.90;;;;;;5058083;28;20094;-76
2022/12/07 08:32:47;;;;;;;15.95;7.70;;;3.30;99.90;;;;;;5059123;28;20028;-76
2022/12/07 08:35:14;;;;;;;35.70;14.10;;;3.30;99.90;;;;;;5059617;28;20052;-76
2022/12/07 08:37:40;;;;;;;23.02;10.07;;;3.20;99.90;;;;;;5059551;28;20023;-76
2022/12/07 08:40:14;;;;;;;21.67;9.13;;;4.30;99.90;;;;;;5059483;28;20025;-76
2022/12/07 08:42:41;;;;;;;13.43;7.18;;;3.30;99.90;;;;;;5059825;28;20021;-76
2022/12/07 08:45:12;;;;;;;11.60;5.15;;;3.40;99.90;;;;;;5059476;28;20095;-76
2022/12/07 08:47:43;;;;;;;11.85;6.30;;;3.40;99.90;;;;;;5059856;28;20059;-76
2022/12/07 08:50:11;;;;;;;10.18;5.15;;;4.00;99.90;;;;;;5058627;28;20359;-76
2022/12/07 08:52:37;;;;;;;8.23;4.60;;;4.70;99.90;;;;;;5059837;28;20017;-75
2022/12/07 08:55:04;;;;;;;11.50;5.25;;;3.10;99.90;;;;;;5059336;28;20037;-75
2022/12/07 08:57:32;;;;;;;8.65;4.25;;;3.00;99.90;;;;;;5058749;28;20033;-75
2022/12/07 08:59:58;;;;;;;8.63;4.15;;;3.00;99.90;;;;;;5061079;28;20036;-76
2022/12/07 09:02:24;;;;;;;11.40;7.07;;;3.00;99.90;;;;;;5066014;28;20033;-74
2022/12/07 09:04:49;;;;;;;15.25;6.55;;;3.00;99.90;;;;;;5068488;28;20025;-76
2022/12/07 09:07:16;;;;;;;13.30;7.53;;;2.90;99.90;;;;;;5066087;28;20047;-73
2022/12/07 09:09:42;;;;;;;19.80;7.40;;;3.00;99.90;;;;;;5066061;28;20486;-75
2022/12/07 09:12:08;;;;;;;15.40;6.65;;;3.30;99.90;;;;;;5067284;28;20051;-76
2022/12/07 09:14:34;;;;;;;10.90;6.28;;;3.30;99.90;;;;;;5067066;28;20033;-75
2022/12/07 09:17:11;;;;;;;13.10;6.22;;;3.20;99.90;;;;;;5065679;28;20025;-77
2022/12/07 09:19:37;;;;;;;14.05;5.53;;;2.90;99.90;;;;;;5068508;28;20474;-75
2022/12/07 09:22:04;;;;;;;10.98;5.25;;;2.80;99.90;;;;;;5069764;28;20044;-75
2022/12/07 09:24:30;;;;;;;17.15;7.63;;;2.60;99.90;;;;;;5073677;28;20032;-75
2022/12/07 09:26:56;;;;;;;14.27;6.13;;;3.10;99.90;;;;;;5073518;28;20024;-76
2022/12/07 09:29:22;;;;;;;14.95;7.57;;;2.50;99.90;;;;;;5073674;28;20095;-75
2022/12/07 09:31:48;;;;;;;17.42;7.25;;;2.30;99.90;;;;;;5073654;28;20469;-75
2022/12/07 09:34:14;;;;;;;19.00;8.48;;;2.20;99.90;;;;;;5077978;28;20032;-74
2022/12/07 09:36:39;;;;;;;23.42;10.20;;;2.20;99.90;;;;;;5071926;28;20013;-73
2022/12/07 09:39:05;;;;;;;20.30;10.10;;;2.20;99.90;;;;;;5071371;28;20139;-74
2022/12/07 09:41:32;;;;;;;14.65;7.00;;;2.20;99.90;;;;;;5072492;28;20029;-74
2022/12/07 09:44:06;;;;;;;19.10;9.73;;;2.30;99.90;;;;;;5071169;28;20535;-74
2022/12/07 09:46:38;;;;;;;17.48;7.82;;;2.60;99.90;;;;;;5071933;28;20020;-74
2022/12/07 09:49:05;;;;;;;17.35;9.35;;;2.70;99.90;;;;;;5073010;28;20031;-74
2022/12/07 09:51:31;;;;;;;15.05;7.18;;;3.00;99.90;;;;;;5072624;28;20040;-74
2022/12/07 09:53:58;;;;;;;13.38;6.60;;;3.90;99.90;;;;;;5072487;28;20503;-75
2022/12/07 09:56:24;;;;;;;21.25;7.07;;;2.90;99.90;;;;;;5072374;28;20051;-75
2022/12/07 09:58:57;;;;;;;19.02;9.05;;;2.80;99.90;;;;;;5071414;28;20472;-75
2022/12/07 10:01:23;;;;;;;13.88;7.05;;;2.80;99.90;;;;;;5071457;28;20017;-74
2022/12/07 10:04:11;;;;;;;11.00;6.45;;;3.00;99.90;;;;;;5071809;28;20509;-75
2022/12/07 10:06:36;;;;;;;10.15;5.35;;;2.90;99.90;;;;;;5072725;28;20127;-75
2022/12/07 10:09:09;;;;;;;14.27;6.50;;;2.90;99.90;;;;;;5072890;28;20033;-76
2022/12/07 10:11:35;;;;;;;14.13;5.60;;;3.00;99.90;;;;;;5070819;28;20039;-75
2022/12/07 10:14:13;;;;;;;13.63;6.90;;;3.00;99.90;;;;;;5071070;28;20481;-76
2022/12/07 10:16:41;;;;;;;11.13;5.45;;;3.60;99.90;;;;;;5071219;28;20027;-74
2022/12/07 10:19:24;;;;;;;11.38;5.57;;;3.40;99.90;;;;;;5072532;28;20021;-74
2022/12/07 10:22:14;;;;;;;10.10;5.43;;;3.40;99.90;;;;;;5071272;28;20501;-74
2022/12/07 10:24:42;;;;;;;9.25;4.57;;;3.30;99.90;;;;;;5072543;28;20048;-74
2022/12/07 10:27:21;;;;;;;11.85;5.88;;;3.60;99.90;;;;;;5072502;28;20033;-74
2022/12/07 10:29:50;;;;;;;11.30;6.55;;;2.90;99.90;;;;;;5072116;28;20389;-74
2022/12/07 10:32:15;;;;;;;18.27;7.07;;;2.90;99.90;;;;;;5071024;28;20028;-77
2022/12/07 10:34:42;;;;;;;12.40;7.35;;;3.00;99.90;;;;;;5070063;28;20032;-74
2022/12/07 10:37:16;;;;;;;11.65;6.95;;;3.30;99.90;;;;;;5072029;28;20119;-76
2022/12/07 10:39:50;;;;;;;13.43;5.50;;;3.20;99.90;;;;;;5072113;28;20052;-75
2022/12/07 10:42:22;;;;;;;11.07;6.90;;;3.40;99.90;;;;;;5071716;28;20021;-75
2022/12/07 10:44:49;;;;;;;11.85;6.22;;;3.30;99.90;;;;;;5071878;28;20020;-75
2022/12/07 10:47:21;;;;;;;14.60;7.10;;;3.30;99.90;;;;;;5063405;28;20614;-76
2022/12/07 10:49:58;;;;;;;11.77;6.70;;;3.30;99.90;;;;;;5049762;28;20489;-75
2022/12/07 10:52:48;;;;;;;11.25;6.95;;;3.30;99.90;;;;;;5051675;28;20509;-75
2022/12/07 10:55:16;;;;;;;8.50;4.95;;;3.40;99.90;;;;;;5059122;28;20039;-76
2022/12/07 10:57:56;;;;;;;14.38;6.40;;;3.50;99.90;;;;;;5057421;28;20079;-75
2022/12/07 11:00:30;;;;;;;7.18;4.63;;;3.50;99.90;;;;;;5054482;28;20370;-76
2022/12/07 11:03:14;;;;;;;10.57;5.60;;;3.60;99.90;;;;;;5051830;28;20032;-76
2022/12/07 11:06:01;;;;;;;11.00;6.30;;;3.60;99.90;;;;;;5069754;28;20024;-75
2022/12/07 11:08:53;;;;;;;10.88;6.05;;;3.70;99.90;;;;;;5071143;28;20024;-76
2022/12/07 11:11:33;;;;;;;10.35;5.93;;;3.70;99.90;;;;;;5068853;28;20085;-75
2022/12/07 11:14:13;;;;;;;10.98;5.22;;;3.80;99.90;;;;;;5071159;28;20036;-76
2022/12/07 11:16:59;;;;;;;10.80;4.63;;;3.50;99.90;;;;;;5065961;28;20028;-76
2022/12/07 11:19:50;;;;;;;10.48;4.65;;;3.40;99.90;;;;;;5066342;28;20025;-75
2022/12/07 11:22:40;;;;;;;9.93;5.22;;;3.20;99.90;;;;;;5049493;28;20049;-75
2022/12/07 11:25:35;;;;;;;14.88;5.97;;;3.20;99.90;;;;;;5050851;28;20149;-75
2022/12/07 11:28:06;;;;;;;9.48;4.90;;;3.20;99.90;;;;;;5065871;28;20021;-76
2022/12/07 11:30:51;;;;;;;13.65;6.00;;;3.20;99.90;;;;;;5049209;28;20083;-75
2022/12/07 11:33:28;;;;;;;12.57;5.03;;;3.40;99.90;;;;;;5049334;28;20040;-76
2022/12/07 11:36:22;;;;;;;10.65;6.85;;;3.30;99.90;;;;;;5050761;28;20028;-75
2022/12/07 11:38:53;;;;;;;11.27;4.95;;;3.40;99.90;;;;;;5050884;28;20033;-74
2022/12/07 11:41:26;;;;;;;11.98;5.75;;;3.50;99.90;;;;;;5075636;28;20021;-76
2022/12/07 11:44:26;;;;;;;15.00;5.63;;;3.70;99.90;;;;;;5051388;28;20017;-77
2022/12/07 11:47:01;;;;;;;7.72;5.15;;;3.80;99.90;;;;;;5043662;28;20060;-76
2022/12/07 11:49:40;;;;;;;11.25;5.00;;;3.80;99.90;;;;;;5068034;28;20051;-75
2022/12/07 11:52:35;;;;;;;6.55;4.78;;;3.80;99.90;;;;;;5066911;28;20489;-76
2022/12/07 11:55:05;;;;;;;9.63;4.15;;;3.70;99.90;;;;;;5043002;28;20048;-76
2022/12/07 11:57:41;;;;;;;8.27;4.43;;;3.70;99.90;;;;;;5067975;28;20078;-76
2022/12/07 12:00:14;;;;;;;9.02;5.38;;;3.70;99.90;;;;;;5068735;28;20033;-76
2022/12/07 12:03:05;;;;;;;9.63;5.00;;;3.70;99.90;;;;;;5066997;28;20032;-76
2022/12/07 12:05:31;;;;;;;9.63;4.93;;;3.80;99.90;;;;;;5064108;28;20108;-76
2022/12/07 12:07:57;;;;;;;8.45;4.38;;;;;;;;;;5048283;28;20100;-76
2022/12/07 12:10:37;;;;;;;10.07;3.85;;;4.30;99.90;;;;;;5046629;28;20068;-76
2022/12/07 12:13:15;;;;;;;11.30;5.50;;;4.40;99.90;;;;;;5047040;28;20428;-76
2022/12/07 12:15:59;;;;;;;8.82;4.88;;;4.40;99.90;;;;;;5047017;28;20049;-76
2022/12/07 12:18:49;;;;;;;8.30;4.38;;;4.40;99.90;;;;;;5047693;28;20061;-77
2022/12/07 12:21:19;;;;;;;11.38;4.85;;;4.40;99.90;;;;;;5046762;28;20048;-76
2022/12/07 12:23:57;;;;;;;7.50;5.28;;;4.40;99.90;;;;;;5046855;28;20021;-76
2022/12/07 12:26:32;;;;;;;7.32;3.67;;;4.40;99.90;;;;;;5055271;28;20052;-75
2022/12/07 12:29:18;;;;;;;8.32;3.92;;;4.20;99.90;;;;;;5067332;28;20024;-75
2022/12/07 12:32:04;;;;;;;7.97;4.03;;;4.10;99.90;;;;;;5068736;28;20118;-76
2022/12/07 12:34:40;;;;;;;3.30;2.38;;;4.10;99.90;;;;;;5068559;28;20036;-76
2022/12/07 12:37:39;;;;;;;5.97;4.00;;;4.00;99.90;;;;;;5063570;28;20025;-77
2022/12/07 12:40:14;;;;;;;36.95;15.98;;;;;;;;;;5041483;28;20036;-75
2022/12/07 12:43:32;;;;;;;7.88;4.30;;;4.00;99.90;;;;;;5047938;28;20021;-76
2022/12/07 12:46:31;;;;;;;8.18;3.85;;;4.00;99.90;;;;;;5052961;28;20037;-76
2022/12/07 12:49:19;;;;;;;6.70;3.88;;;3.90;99.90;;;;;;5047497;28;20025;-76
2022/12/07 12:51:50;;;;;;;5.78;3.05;;;4.00;99.90;;;;;;5043335;28;20039;-75
2022/12/07 12:54:16;;;;;;;8.88;4.32;;;;;;;;;;5047275;28;20048;-76
2022/12/07 12:57:06;;;;;;;7.63;3.85;;;4.00;99.90;;;;;;5048912;28;20024;-76
2022/12/07 12:59:39;;;;;;;8.55;3.50;;;4.00;99.90;;;;;;5051623;28;20032;-74
2022/12/07 13:02:23;;;;;;;7.70;4.15;;;4.50;99.90;;;;;;5050153;28;20032;-76
2022/12/07 13:04:49;;;;;;;7.35;4.60;;;;;;;;;;5048569;28;20048;-76
2022/12/07 13:07:44;;;;;;;5.60;4.00;;;4.90;99.90;;;;;;5049528;28;20115;-76
2022/12/07 13:10:31;;;;;;;7.10;3.20;;;5.50;99.90;;;;;;5049140;28;20132;-76
2022/12/07 13:13:03;;;;;;;7.90;3.92;;;7.50;91.80;;;;;;5051276;28;20035;-76
2022/12/07 13:15:44;;;;;;;8.88;4.05;;;8.20;86.30;;;;;;5049160;28;20029;-77
2022/12/07 13:18:28;;;;;;;7.70;3.70;;;8.20;86.90;;;;;;5063337;28;20503;-75
2022/12/07 13:20:55;;;;;;;6.95;2.97;;;8.60;82.00;;;;;;5070358;28;20059;-76